createdAt,value
2023-08-14T00:00:23.418Z,17.95
2023-08-14T00:01:23.509Z,17.97
2023-08-14T00:02:23.495Z,17.95
2023-08-14T00:03:23.556Z,17.93
2023-08-14T00:04:23.527Z,17.97
2023-08-14T00:05:23.551Z,18.00
2023-08-14T00:06:23.588Z,18.00
2023-08-14T00:07:23.609Z,17.90
2023-08-14T00:08:23.628Z,17.95
2023-08-14T00:09:23.663Z,17.82
2023-08-14T00:10:23.685Z,17.81
2023-08-14T00:11:23.710Z,17.87
2023-08-14T00:12:23.737Z,17.86
2023-08-14T00:13:23.762Z,17.93
2023-08-14T00:14:23.795Z,17.96
2023-08-14T00:15:23.852Z,18.00
2023-08-14T00:16:23.850Z,17.90
2023-08-14T00:17:23.870Z,17.97
2023-08-14T00:18:23.897Z,17.95
2023-08-14T00:19:23.930Z,17.95
2023-08-14T00:20:23.950Z,17.93
2023-08-14T00:21:23.985Z,17.96
2023-08-14T00:22:24.010Z,17.90
2023-08-14T00:23:24.033Z,17.97
2023-08-14T00:24:24.062Z,17.97
2023-08-14T00:25:24.108Z,17.95
2023-08-14T00:26:24.122Z,17.92
2023-08-14T00:27:24.139Z,17.95
2023-08-14T00:28:24.166Z,17.92
2023-08-14T00:29:24.199Z,17.96
2023-08-14T00:30:24.221Z,18.02
2023-08-14T00:31:24.286Z,17.97
2023-08-14T00:32:24.271Z,17.97
2023-08-14T00:33:24.301Z,18.00
2023-08-14T00:34:24.322Z,18.00
2023-08-14T00:35:24.348Z,17.95
2023-08-14T00:36:24.382Z,17.99
2023-08-14T00:37:24.414Z,17.99
2023-08-14T00:38:24.439Z,17.96
2023-08-14T00:39:24.457Z,17.92
2023-08-14T00:40:24.483Z,18.02
2023-08-14T00:41:24.518Z,17.97
2023-08-14T00:42:24.538Z,17.97
2023-08-14T00:43:24.581Z,17.96
2023-08-14T00:44:24.591Z,17.97
2023-08-14T00:45:33.004Z,17.95
2023-08-14T00:46:24.697Z,17.95
2023-08-14T00:47:24.670Z,17.93
2023-08-14T00:48:24.710Z,17.92
2023-08-14T00:49:24.733Z,18.02
2023-08-14T00:50:24.748Z,17.92
2023-08-14T00:51:24.801Z,18.03
2023-08-14T00:52:24.804Z,18.02
2023-08-14T00:53:24.828Z,17.95
2023-08-14T00:54:24.863Z,17.99
2023-08-14T00:55:24.881Z,17.99
2023-08-14T00:56:24.936Z,17.95
2023-08-14T00:57:24.939Z,18.00
2023-08-14T00:58:24.965Z,17.97
2023-08-14T00:59:24.997Z,17.89
2023-08-14T01:00:25.045Z,17.84
2023-08-14T01:01:25.046Z,17.86
2023-08-14T01:02:25.120Z,17.81
2023-08-14T01:03:25.139Z,17.78
2023-08-14T01:04:25.125Z,17.74
2023-08-14T01:05:25.150Z,17.78
2023-08-14T01:06:25.176Z,17.75
2023-08-14T01:07:25.202Z,17.71
2023-08-14T01:08:25.231Z,17.78
2023-08-14T01:09:25.258Z,17.77
2023-08-14T01:10:25.292Z,17.72
2023-08-14T01:11:25.309Z,17.78
2023-08-14T01:12:25.351Z,17.82
2023-08-14T01:13:25.365Z,17.86
2023-08-14T01:14:25.390Z,17.86
2023-08-14T01:15:25.417Z,17.89
2023-08-14T01:16:25.478Z,17.77
2023-08-14T01:17:25.518Z,17.77
2023-08-14T01:18:25.531Z,17.75
2023-08-14T01:19:25.527Z,17.74
2023-08-14T01:20:25.548Z,17.75
2023-08-14T01:21:25.583Z,17.81
2023-08-14T01:22:25.628Z,17.75
2023-08-14T01:23:25.628Z,17.72
2023-08-14T01:24:25.656Z,17.63
2023-08-14T01:25:25.701Z,17.70
2023-08-14T01:26:25.728Z,17.56
2023-08-14T01:27:25.744Z,17.58
2023-08-14T01:28:25.760Z,17.52
2023-08-14T01:29:25.805Z,17.55
2023-08-14T01:30:25.865Z,17.38
2023-08-14T01:31:25.839Z,17.49
2023-08-14T01:32:25.868Z,17.44
2023-08-14T01:33:25.892Z,17.46
2023-08-14T01:34:25.926Z,17.48
2023-08-14T01:35:25.969Z,17.36
2023-08-14T01:36:25.976Z,17.30
2023-08-14T01:37:25.996Z,17.41
2023-08-14T01:38:26.063Z,17.41
2023-08-14T01:39:26.053Z,17.48
2023-08-14T01:40:26.137Z,17.52
2023-08-14T01:41:26.107Z,17.41
2023-08-14T01:42:26.216Z,17.48
2023-08-14T01:43:26.158Z,17.52
2023-08-14T01:44:26.181Z,17.46
2023-08-14T01:45:26.204Z,17.48
2023-08-14T01:46:26.269Z,17.41
2023-08-14T01:47:26.283Z,17.46
2023-08-14T01:48:26.287Z,17.28
2023-08-14T01:49:26.319Z,17.30
2023-08-14T01:50:26.344Z,17.33
2023-08-14T01:51:26.369Z,17.30
2023-08-14T01:52:26.401Z,17.33
2023-08-14T01:53:26.419Z,17.33
2023-08-14T01:54:26.448Z,17.30
2023-08-14T01:55:26.481Z,17.31
2023-08-14T01:56:26.495Z,17.31
2023-08-14T01:57:26.527Z,17.34
2023-08-14T01:58:26.554Z,17.30
2023-08-14T01:59:26.577Z,17.30
2023-08-14T02:00:26.644Z,17.30
2023-08-14T02:01:26.708Z,17.26
2023-08-14T02:02:26.673Z,17.28
2023-08-14T02:03:26.768Z,17.26
2023-08-14T02:04:26.706Z,17.31
2023-08-14T02:05:26.750Z,17.26
2023-08-14T02:06:26.772Z,17.33
2023-08-14T02:07:26.786Z,17.31
2023-08-14T02:08:26.812Z,17.26
2023-08-14T02:09:26.836Z,17.25
2023-08-14T02:10:26.863Z,17.26
2023-08-14T02:11:26.889Z,17.21
2023-08-14T02:12:26.929Z,17.15
2023-08-14T02:13:26.954Z,17.22
2023-08-14T02:14:26.978Z,17.26
2023-08-14T02:15:27.010Z,17.28
2023-08-14T02:16:27.103Z,17.26
2023-08-14T02:17:27.077Z,17.31
2023-08-14T02:18:27.088Z,17.33
2023-08-14T02:19:27.104Z,17.30
2023-08-14T02:20:27.158Z,17.30
2023-08-14T02:21:27.158Z,17.30
2023-08-14T02:22:27.200Z,17.30
2023-08-14T02:23:27.205Z,17.30
2023-08-14T02:24:27.283Z,17.31
2023-08-14T02:25:27.315Z,17.31
2023-08-14T02:26:27.313Z,17.28
2023-08-14T02:27:27.331Z,17.31
2023-08-14T02:28:27.342Z,17.31
2023-08-14T02:29:27.367Z,17.36
2023-08-14T02:30:27.392Z,17.31
2023-08-14T02:31:27.478Z,17.26
2023-08-14T02:32:27.459Z,17.25
2023-08-14T02:33:27.476Z,17.22
2023-08-14T02:34:27.497Z,17.19
2023-08-14T02:35:27.526Z,17.18
2023-08-14T02:36:27.548Z,17.16
2023-08-14T02:37:27.582Z,17.16
2023-08-14T02:38:27.613Z,17.15
2023-08-14T02:39:27.628Z,17.16
2023-08-14T02:40:27.654Z,17.11
2023-08-14T02:41:27.683Z,17.12
2023-08-14T02:42:27.708Z,17.14
2023-08-14T02:43:27.733Z,17.04
2023-08-14T02:44:27.760Z,17.06
2023-08-14T02:45:27.834Z,17.12
2023-08-14T02:46:27.814Z,17.08
2023-08-14T02:47:27.882Z,17.00
2023-08-14T02:48:27.861Z,16.96
2023-08-14T02:49:27.893Z,16.97
2023-08-14T02:50:27.913Z,16.97
2023-08-14T02:51:27.940Z,16.97
2023-08-14T02:52:27.967Z,17.06
2023-08-14T02:53:27.998Z,17.08
2023-08-14T02:54:28.015Z,17.00
2023-08-14T02:55:28.038Z,16.91
2023-08-14T02:56:28.073Z,16.96
2023-08-14T02:57:28.104Z,17.04
2023-08-14T02:58:28.121Z,16.94
2023-08-14T02:59:28.148Z,16.94
2023-08-14T03:00:28.172Z,16.97
2023-08-14T03:01:28.229Z,16.91
2023-08-14T03:02:28.267Z,17.04
2023-08-14T03:03:28.260Z,16.96
2023-08-14T03:04:28.277Z,17.04
2023-08-14T03:05:28.324Z,16.83
2023-08-14T03:06:28.328Z,16.85
2023-08-14T03:07:28.353Z,16.88
2023-08-14T03:08:28.385Z,16.83
2023-08-14T03:09:28.406Z,16.86
2023-08-14T03:10:28.430Z,16.85
2023-08-14T03:11:28.468Z,16.85
2023-08-14T03:12:28.486Z,16.82
2023-08-14T03:13:28.515Z,16.82
2023-08-14T03:14:28.542Z,16.71
2023-08-14T03:15:28.559Z,16.79
2023-08-14T03:16:28.610Z,16.73
2023-08-14T03:17:28.652Z,16.61
2023-08-14T03:18:28.650Z,16.66
2023-08-14T03:19:28.693Z,16.63
2023-08-14T03:20:28.691Z,16.71
2023-08-14T03:21:28.729Z,16.67
2023-08-14T03:22:28.751Z,16.64
2023-08-14T03:23:28.780Z,16.61
2023-08-14T03:24:28.795Z,16.61
2023-08-14T03:25:28.826Z,16.58
2023-08-14T03:26:28.852Z,16.50
2023-08-14T03:27:28.880Z,16.50
2023-08-14T03:28:28.906Z,16.57
2023-08-14T03:29:28.931Z,16.45
2023-08-14T03:30:28.956Z,16.42
2023-08-14T03:31:28.988Z,16.53
2023-08-14T03:32:29.017Z,16.43
2023-08-14T03:33:29.029Z,16.43
2023-08-14T03:34:29.062Z,16.39
2023-08-14T03:35:29.086Z,16.39
2023-08-14T03:36:29.109Z,16.33
2023-08-14T03:37:29.134Z,16.38
2023-08-14T03:38:29.160Z,16.41
2023-08-14T03:39:29.184Z,16.34
2023-08-14T03:40:29.219Z,16.39
2023-08-14T03:41:29.240Z,16.34
2023-08-14T03:42:29.266Z,16.50
2023-08-14T03:43:29.295Z,16.42
2023-08-14T03:44:29.316Z,16.39
2023-08-14T03:45:29.339Z,16.42
2023-08-14T03:46:29.419Z,16.45
2023-08-14T03:47:29.408Z,16.48
2023-08-14T03:48:29.416Z,16.43
2023-08-14T03:49:29.441Z,16.48
2023-08-14T03:50:29.474Z,16.50
2023-08-14T03:51:29.491Z,16.46
2023-08-14T03:52:29.523Z,16.42
2023-08-14T03:53:29.545Z,16.42
2023-08-14T03:54:29.579Z,16.30
2023-08-14T03:55:29.598Z,16.31
2023-08-14T03:56:29.624Z,16.34
2023-08-14T03:57:29.652Z,16.34
2023-08-14T03:58:29.672Z,16.31
2023-08-14T03:59:29.698Z,16.30
2023-08-14T04:00:29.722Z,16.33
2023-08-14T04:01:29.796Z,16.25
2023-08-14T04:02:29.800Z,16.31
2023-08-14T04:03:29.867Z,16.28
2023-08-14T04:04:29.826Z,16.23
2023-08-14T04:05:29.851Z,16.25
2023-08-14T04:06:29.989Z,16.21
2023-08-14T04:07:29.904Z,16.17
2023-08-14T04:08:29.932Z,16.24
2023-08-14T04:09:29.962Z,16.20
2023-08-14T04:10:29.993Z,16.14
2023-08-14T04:11:30.018Z,16.23
2023-08-14T04:12:30.039Z,16.21
2023-08-14T04:13:30.060Z,16.23
2023-08-14T04:14:30.083Z,16.15
2023-08-14T04:15:30.109Z,16.17
2023-08-14T04:16:30.161Z,16.21
2023-08-14T04:17:30.157Z,16.11
2023-08-14T04:18:30.186Z,16.11
2023-08-14T04:19:30.208Z,16.15
2023-08-14T04:20:30.233Z,16.21
2023-08-14T04:21:30.263Z,16.20
2023-08-14T04:22:30.344Z,16.17
2023-08-14T04:23:30.312Z,16.21
2023-08-14T04:24:30.338Z,16.21
2023-08-14T04:25:30.368Z,16.21
2023-08-14T04:26:30.388Z,16.20
2023-08-14T04:27:30.418Z,16.17
2023-08-14T04:28:30.439Z,16.24
2023-08-14T04:29:30.482Z,16.38
2023-08-14T04:30:30.491Z,16.34
2023-08-14T04:31:30.570Z,16.30
2023-08-14T04:32:30.559Z,16.34
2023-08-14T04:33:30.566Z,16.30
2023-08-14T04:34:30.593Z,16.34
2023-08-14T04:35:30.640Z,16.35
2023-08-14T04:36:30.645Z,16.35
2023-08-14T04:37:30.684Z,16.28
2023-08-14T04:38:30.701Z,16.41
2023-08-14T04:39:30.728Z,16.43
2023-08-14T04:40:30.746Z,16.41
2023-08-14T04:41:30.773Z,16.43
2023-08-14T04:42:30.797Z,16.49
2023-08-14T04:43:30.824Z,16.50
2023-08-14T04:44:30.849Z,16.48
2023-08-14T04:45:30.875Z,16.45
2023-08-14T04:46:33.930Z,16.60
2023-08-14T04:47:31.015Z,16.71
2023-08-14T04:48:30.952Z,16.76
2023-08-14T04:49:31.000Z,16.68
2023-08-14T04:50:31.002Z,16.78
2023-08-14T04:51:31.031Z,16.75
2023-08-14T04:52:31.055Z,16.78
2023-08-14T04:53:31.089Z,16.83
2023-08-14T04:54:31.109Z,16.88
2023-08-14T04:55:31.130Z,16.89
2023-08-14T04:56:31.159Z,16.88
2023-08-14T04:57:31.182Z,16.98
2023-08-14T04:58:31.210Z,16.97
2023-08-14T04:59:31.236Z,17.04
2023-08-14T05:00:31.279Z,17.16
2023-08-14T05:01:31.324Z,17.12
2023-08-14T05:02:31.329Z,17.19
2023-08-14T05:03:31.337Z,17.26
2023-08-14T05:04:31.392Z,17.36
2023-08-14T05:05:31.397Z,17.44
2023-08-14T05:06:31.427Z,17.52
2023-08-14T05:07:31.446Z,17.68
2023-08-14T05:08:31.470Z,17.71
2023-08-14T05:09:31.512Z,17.75
2023-08-14T05:10:31.533Z,17.75
2023-08-14T05:11:31.550Z,17.77
2023-08-14T05:12:31.583Z,17.81
2023-08-14T05:13:31.618Z,17.84
2023-08-14T05:14:31.629Z,17.82
2023-08-14T05:15:31.652Z,17.84
2023-08-14T05:16:31.775Z,17.81
2023-08-14T05:17:31.754Z,17.82
2023-08-14T05:18:31.735Z,17.84
2023-08-14T05:19:31.765Z,17.87
2023-08-14T05:20:31.788Z,17.90
2023-08-14T05:21:31.813Z,17.97
2023-08-14T05:22:31.843Z,17.89
2023-08-14T05:23:31.869Z,17.92
2023-08-14T05:24:31.893Z,17.95
2023-08-14T05:25:31.925Z,17.96
2023-08-14T05:26:31.956Z,18.02
2023-08-14T05:27:31.972Z,17.99
2023-08-14T05:28:32.080Z,18.14
2023-08-14T05:29:32.027Z,18.21
2023-08-14T05:30:32.052Z,18.12
2023-08-14T05:31:32.101Z,18.15
2023-08-14T05:32:32.153Z,18.14
2023-08-14T05:33:32.140Z,18.08
2023-08-14T05:34:32.158Z,18.03
2023-08-14T05:35:32.184Z,18.05
2023-08-14T05:36:32.214Z,18.12
2023-08-14T05:37:32.237Z,18.18
2023-08-14T05:38:32.264Z,18.12
2023-08-14T05:39:32.294Z,18.21
2023-08-14T05:40:32.323Z,18.35
2023-08-14T05:41:32.348Z,18.25
2023-08-14T05:42:32.384Z,18.39
2023-08-14T05:43:32.402Z,18.39
2023-08-14T05:44:32.428Z,18.48
2023-08-14T05:45:32.516Z,18.52
2023-08-14T05:46:32.478Z,18.57
2023-08-14T05:47:32.525Z,18.66
2023-08-14T05:48:32.535Z,18.70
2023-08-14T05:49:32.566Z,18.80
2023-08-14T05:50:32.589Z,18.85
2023-08-14T05:51:32.614Z,18.95
2023-08-14T05:52:32.652Z,19.02
2023-08-14T05:53:39.846Z,19.10
2023-08-14T05:55:37.165Z,19.13
2023-08-14T05:56:36.717Z,19.16
2023-08-14T05:58:40.734Z,19.21
2023-08-14T05:59:40.741Z,19.25
2023-08-14T06:01:45.246Z,19.33
2023-08-14T06:02:44.841Z,19.37
2023-08-14T06:04:48.820Z,19.58
2023-08-14T06:05:48.862Z,19.66
2023-08-14T06:07:53.335Z,19.73
2023-08-14T06:08:52.875Z,19.86
2023-08-14T06:10:56.911Z,19.91
2023-08-14T06:11:56.930Z,19.91
2023-08-14T06:13:50.428Z,20.17
2023-08-14T06:14:52.009Z,20.41
2023-08-14T06:16:53.981Z,20.85
2023-08-14T06:17:54.010Z,21.03
2023-08-14T06:19:58.444Z,21.34
2023-08-14T06:20:57.984Z,21.58
2023-08-14T06:23:02.009Z,22.02
2023-08-14T06:24:02.031Z,22.18
2023-08-14T06:26:06.533Z,22.30
2023-08-14T06:27:06.072Z,22.31
2023-08-14T06:29:10.200Z,22.68
2023-08-14T06:30:10.151Z,22.97
2023-08-14T06:32:14.634Z,23.25
2023-08-14T06:33:15.622Z,23.39
2023-08-14T06:35:18.198Z,23.65
2023-08-14T06:36:18.227Z,23.88
2023-08-14T06:38:22.721Z,23.95
2023-08-14T06:39:22.276Z,24.09
2023-08-14T06:41:26.340Z,24.34
2023-08-14T06:42:26.331Z,24.47
2023-08-14T06:44:30.837Z,24.58
2023-08-14T06:45:30.380Z,24.52
2023-08-14T06:47:34.428Z,24.69
2023-08-14T06:48:34.444Z,24.85
2023-08-14T06:50:38.944Z,24.90
2023-08-14T06:51:38.485Z,24.80
2023-08-14T06:53:31.461Z,24.62
2023-08-14T06:54:31.482Z,24.62
2023-08-14T06:57:35.514Z,24.77
2023-08-14T06:59:39.580Z,24.80
2023-08-14T07:00:39.680Z,24.64
2023-08-14T07:02:44.148Z,24.52
2023-08-14T07:03:43.698Z,24.47
2023-08-14T07:05:47.664Z,24.52
2023-08-14T07:06:47.689Z,24.50
2023-08-14T07:08:52.190Z,24.50
2023-08-14T07:09:51.738Z,24.42
2023-08-14T07:11:55.776Z,24.43
2023-08-14T07:12:55.848Z,24.45
2023-08-14T07:15:00.401Z,24.30
2023-08-14T07:15:59.888Z,24.35
2023-08-14T07:18:03.916Z,24.16
2023-08-14T07:19:03.911Z,24.18
2023-08-14T07:21:08.414Z,24.08
2023-08-14T07:22:07.960Z,23.95
2023-08-14T07:24:00.911Z,24.10
2023-08-14T07:25:00.937Z,24.12
2023-08-14T07:27:05.440Z,24.10
2023-08-14T07:28:05.003Z,24.16
2023-08-14T07:30:09.030Z,24.08
2023-08-14T07:31:09.097Z,24.05
2023-08-14T07:33:13.553Z,23.94
2023-08-14T07:34:13.109Z,24.09
2023-08-14T07:36:17.163Z,24.13
2023-08-14T07:37:17.160Z,24.15
2023-08-14T07:39:21.689Z,24.35
2023-08-14T07:40:21.219Z,24.43
2023-08-14T07:42:25.240Z,24.57
2023-08-14T07:43:25.264Z,24.58
2023-08-14T07:45:29.818Z,24.65
2023-08-14T07:46:29.340Z,24.76
2023-08-14T07:48:33.364Z,24.90
2023-08-14T07:49:33.385Z,24.95
2023-08-14T07:51:37.894Z,25.13
2023-08-14T07:52:37.442Z,25.17
2023-08-14T07:54:41.476Z,25.21
2023-08-14T07:55:41.494Z,25.20
2023-08-14T07:58:38.976Z,24.93
2023-08-14T07:59:38.671Z,24.93
2023-08-14T08:01:42.784Z,25.05
2023-08-14T08:02:42.744Z,24.99
2023-08-14T08:04:47.215Z,25.03
2023-08-14T08:05:46.785Z,25.05
2023-08-14T08:07:52.576Z,25.28
2023-08-14T08:08:52.631Z,25.18
2023-08-14T08:10:55.569Z,25.20
2023-08-14T08:11:56.408Z,25.23
2023-08-14T08:13:47.829Z,25.30
2023-08-14T08:14:47.852Z,25.30
2023-08-14T08:16:52.359Z,25.35
2023-08-14T08:17:51.979Z,25.30
2023-08-14T08:19:55.982Z,25.40
2023-08-14T08:20:55.965Z,25.35
2023-08-14T08:23:00.474Z,25.25
2023-08-14T08:24:00.026Z,25.17
2023-08-14T08:26:04.048Z,25.21
2023-08-14T08:27:04.070Z,25.24
2023-08-14T08:29:08.575Z,25.43
2023-08-14T08:30:08.130Z,25.35
2023-08-14T08:32:12.185Z,25.23
2023-08-14T08:33:12.231Z,25.10
2023-08-14T08:35:16.707Z,25.14
2023-08-14T08:36:16.256Z,25.08
2023-08-14T08:38:20.294Z,24.93
2023-08-14T08:39:20.308Z,24.87
2023-08-14T08:41:24.805Z,24.91
2023-08-14T08:42:24.423Z,24.91
2023-08-14T08:44:28.421Z,24.90
2023-08-14T08:45:28.441Z,24.88
2023-08-14T08:47:35.981Z,25.09
2023-08-14T08:48:32.495Z,25.21
2023-08-14T08:50:36.523Z,25.25
2023-08-14T08:51:36.546Z,25.28
2023-08-14T08:53:30.057Z,25.25
2023-08-14T08:54:29.526Z,25.20
2023-08-14T08:56:33.545Z,25.30
2023-08-14T08:57:37.143Z,25.28
2023-08-14T09:00:42.064Z,25.46
2023-08-14T09:01:41.643Z,25.52
2023-08-14T09:03:34.709Z,25.83
2023-08-14T09:04:34.725Z,25.91
2023-08-14T09:06:39.122Z,25.95
2023-08-14T09:07:38.668Z,26.05
2023-08-14T09:09:42.686Z,26.07
2023-08-14T09:10:42.710Z,26.09
2023-08-14T09:12:47.217Z,26.06
2023-08-14T09:13:46.771Z,26.05
2023-08-14T09:15:50.793Z,26.05
2023-08-14T09:16:52.884Z,26.01
2023-08-14T09:18:55.349Z,25.94
2023-08-14T09:19:54.877Z,25.91
2023-08-14T09:21:58.906Z,25.91
2023-08-14T09:22:58.962Z,25.95
2023-08-14T09:25:03.450Z,26.05
2023-08-14T09:26:02.989Z,26.09
2023-08-14T09:28:07.027Z,25.99
2023-08-14T09:29:07.047Z,26.01
2023-08-14T09:31:11.562Z,26.06
2023-08-14T09:32:11.221Z,26.02
2023-08-14T09:34:04.070Z,26.10
2023-08-14T09:35:04.097Z,26.02
2023-08-14T09:37:08.617Z,25.95
2023-08-14T09:38:08.120Z,25.92
2023-08-14T09:40:12.637Z,25.87
2023-08-14T09:41:12.712Z,25.92
2023-08-14T09:42:12.693Z,25.87
2023-08-14T09:43:12.729Z,25.91
2023-08-14T09:44:12.757Z,25.85
2023-08-14T09:45:12.790Z,25.98
2023-08-14T09:46:12.891Z,25.91
2023-08-14T09:47:12.925Z,26.05
2023-08-14T09:48:13.003Z,26.12
2023-08-14T09:49:12.935Z,26.12
2023-08-14T09:50:12.949Z,26.07
2023-08-14T09:51:12.993Z,26.07
2023-08-14T09:52:13.016Z,26.12
2023-08-14T09:53:13.048Z,26.13
2023-08-14T09:54:13.080Z,25.94
2023-08-14T09:55:13.110Z,25.97
2023-08-14T09:56:13.146Z,25.92
2023-08-14T09:58:13.205Z,25.95
2023-08-14T09:59:13.236Z,26.06
2023-08-14T10:00:13.271Z,25.98
2023-08-14T10:01:13.380Z,25.90
2023-08-14T10:02:13.391Z,25.79
2023-08-14T10:03:13.437Z,25.77
2023-08-14T10:04:13.402Z,25.83
2023-08-14T10:05:13.439Z,25.85
2023-08-14T10:06:13.458Z,25.90
2023-08-14T10:07:13.492Z,25.91
2023-08-14T10:08:13.526Z,25.95
2023-08-14T10:09:13.553Z,25.97
2023-08-14T10:10:13.585Z,25.90
2023-08-14T10:12:13.648Z,25.94
2023-08-14T10:13:13.698Z,25.92
2023-08-14T10:14:13.731Z,26.12
2023-08-14T10:15:13.741Z,26.10
2023-08-14T10:16:13.791Z,26.18
2023-08-14T10:17:13.834Z,26.23
2023-08-14T10:18:13.934Z,26.40
2023-08-14T10:19:13.870Z,26.47
2023-08-14T10:20:14.735Z,26.60
2023-08-14T10:21:13.941Z,26.57
2023-08-14T10:22:13.966Z,26.54
2023-08-14T10:23:14.000Z,26.45
2023-08-14T10:24:14.028Z,26.50
2023-08-14T10:25:14.060Z,26.35
2023-08-14T10:26:14.093Z,26.32
2023-08-14T10:27:14.135Z,26.30
2023-08-14T10:28:14.155Z,26.36
2023-08-14T10:29:14.191Z,26.50
2023-08-14T10:30:14.231Z,26.55
2023-08-14T10:31:14.298Z,26.58
2023-08-14T10:32:14.285Z,26.63
2023-08-14T10:33:14.403Z,26.63
2023-08-14T10:34:14.345Z,26.62
2023-08-14T10:35:14.383Z,26.66
2023-08-14T10:36:14.411Z,26.57
2023-08-14T10:37:14.528Z,26.51
2023-08-14T10:40:14.544Z,26.60
2023-08-14T10:41:14.588Z,26.47
2023-08-14T10:42:14.606Z,26.43
2023-08-14T10:43:14.634Z,26.62
2023-08-14T10:44:14.667Z,26.57
2023-08-14T10:45:14.696Z,26.54
2023-08-14T10:46:14.785Z,26.54
2023-08-14T10:47:14.761Z,26.67
2023-08-14T10:48:14.799Z,26.62
2023-08-14T10:49:14.845Z,26.66
2023-08-14T10:50:14.852Z,26.62
2023-08-14T10:51:14.892Z,26.67
2023-08-14T10:52:14.919Z,26.65
2023-08-14T10:53:14.963Z,26.63
2023-08-14T10:54:15.007Z,26.66
2023-08-14T10:55:15.024Z,26.70
2023-08-14T10:56:15.043Z,26.65
2023-08-14T10:57:15.077Z,26.63
2023-08-14T10:58:15.109Z,26.62
2023-08-14T10:59:15.146Z,26.58
2023-08-14T11:00:15.175Z,26.65
2023-08-14T11:01:15.211Z,26.66
2023-08-14T11:02:15.234Z,26.66
2023-08-14T11:03:15.264Z,26.66
2023-08-14T11:04:15.305Z,26.65
2023-08-14T11:05:15.383Z,26.66
2023-08-14T11:06:15.434Z,26.67
2023-08-14T11:07:15.397Z,26.81
2023-08-14T11:08:15.425Z,26.80
2023-08-14T11:09:15.464Z,26.80
2023-08-14T11:10:15.504Z,26.80
2023-08-14T11:11:15.523Z,26.87
2023-08-14T11:12:15.560Z,26.88
2023-08-14T11:13:15.587Z,26.99
2023-08-14T11:14:15.620Z,27.02
2023-08-14T11:15:15.668Z,27.06
2023-08-14T11:16:15.701Z,27.02
2023-08-14T11:17:15.712Z,26.92
2023-08-14T11:18:15.749Z,26.92
2023-08-14T11:19:15.777Z,27.00
2023-08-14T11:20:15.808Z,27.03
2023-08-14T11:21:30.627Z,27.00
2023-08-14T11:22:15.945Z,27.00
2023-08-14T11:23:15.904Z,27.00
2023-08-14T11:24:15.937Z,27.02
2023-08-14T11:25:17.624Z,27.13
2023-08-14T11:26:16.003Z,27.18
2023-08-14T11:27:16.034Z,27.18
2023-08-14T11:28:16.064Z,27.09
2023-08-14T11:29:16.108Z,27.07
2023-08-14T11:30:18.642Z,27.10
2023-08-14T11:31:17.711Z,27.14
2023-08-14T11:32:16.298Z,27.12
2023-08-14T11:33:16.276Z,27.09
2023-08-14T11:34:16.255Z,27.06
2023-08-14T11:35:16.297Z,27.17
2023-08-14T11:36:16.333Z,27.19
2023-08-14T11:37:18.088Z,27.28
2023-08-14T11:38:16.394Z,27.32
2023-08-14T11:39:16.422Z,27.32
2023-08-14T11:40:16.455Z,27.40
2023-08-14T11:41:16.494Z,27.47
2023-08-14T11:42:17.059Z,27.55
2023-08-14T11:43:16.550Z,27.50
2023-08-14T11:44:16.580Z,27.51
2023-08-14T11:45:16.649Z,27.57
2023-08-14T11:46:16.646Z,27.62
2023-08-14T11:47:16.721Z,27.67
2023-08-14T11:48:16.765Z,27.77
2023-08-14T11:49:16.743Z,27.81
2023-08-14T11:50:16.788Z,27.78
2023-08-14T11:51:16.820Z,27.82
2023-08-14T11:52:17.173Z,27.84
2023-08-14T11:53:16.877Z,27.84
2023-08-14T11:54:16.904Z,27.82
2023-08-14T11:55:17.027Z,27.85
2023-08-14T11:56:16.966Z,28.02
2023-08-14T11:57:17.026Z,28.00
2023-08-14T11:58:17.031Z,28.15
2023-08-14T11:59:17.064Z,28.19
2023-08-14T12:00:23.839Z,28.15
2023-08-14T12:01:17.162Z,28.17
2023-08-14T12:02:17.525Z,28.04
2023-08-14T12:03:17.290Z,28.09
2023-08-14T12:04:17.229Z,28.19
2023-08-14T12:05:17.269Z,28.09
2023-08-14T12:06:17.301Z,28.14
2023-08-14T12:07:17.324Z,28.17
2023-08-14T12:08:17.365Z,28.21
2023-08-14T12:09:17.394Z,28.30
2023-08-14T12:10:17.434Z,28.31
2023-08-14T12:11:17.473Z,28.39
2023-08-14T12:12:17.921Z,28.37
2023-08-14T12:13:17.540Z,28.49
2023-08-14T12:14:17.559Z,28.52
2023-08-14T12:15:17.600Z,28.52
2023-08-14T12:16:19.639Z,28.52
2023-08-14T12:18:18.700Z,28.55
2023-08-14T12:19:17.724Z,28.49
2023-08-14T12:20:17.757Z,28.49
2023-08-14T12:21:17.826Z,28.34
2023-08-14T12:22:17.825Z,28.25
2023-08-14T12:23:17.861Z,28.17
2023-08-14T12:24:17.887Z,28.11
2023-08-14T12:25:17.920Z,28.15
2023-08-14T12:26:17.957Z,28.22
2023-08-14T12:27:18.191Z,28.31
2023-08-14T12:28:18.021Z,28.39
2023-08-14T12:29:18.135Z,28.27
2023-08-14T12:30:18.088Z,28.36
2023-08-14T12:31:18.131Z,28.33
2023-08-14T12:32:18.148Z,28.39
2023-08-14T12:33:18.189Z,28.41
2023-08-14T12:34:18.215Z,28.52
2023-08-14T12:35:18.251Z,28.43
2023-08-14T12:36:18.287Z,28.49
2023-08-14T12:37:18.630Z,28.58
2023-08-14T12:38:18.356Z,28.62
2023-08-14T12:39:18.385Z,28.56
2023-08-14T12:40:18.423Z,28.62
2023-08-14T12:41:18.473Z,28.73
2023-08-14T12:42:18.488Z,28.78
2023-08-14T12:43:19.760Z,28.77
2023-08-14T12:44:18.575Z,28.89
2023-08-14T12:45:18.606Z,28.88
2023-08-14T12:46:18.710Z,28.93
2023-08-14T12:47:19.154Z,28.93
2023-08-14T12:48:18.729Z,29.15
2023-08-14T12:49:18.724Z,29.24
2023-08-14T12:50:18.754Z,29.33
2023-08-14T12:51:18.793Z,29.42
2023-08-14T12:52:18.827Z,29.48
2023-08-14T12:53:18.874Z,29.63
2023-08-14T12:54:18.907Z,29.65
2023-08-14T12:55:19.548Z,29.70
2023-08-14T12:56:19.333Z,29.68
2023-08-14T12:57:18.996Z,29.71
2023-08-14T12:58:19.035Z,29.76
2023-08-14T12:59:24.274Z,29.73
2023-08-14T13:00:19.094Z,29.63
2023-08-14T13:02:24.633Z,29.52
2023-08-14T13:03:19.196Z,29.55
2023-08-14T13:04:19.232Z,29.51
2023-08-14T13:05:19.281Z,29.48
2023-08-14T13:06:20.438Z,29.45
2023-08-14T13:07:19.549Z,29.43
2023-08-14T13:08:19.367Z,29.42
2023-08-14T13:09:19.402Z,29.43
2023-08-14T13:10:19.436Z,29.45
2023-08-14T13:11:19.489Z,29.43
2023-08-14T13:12:19.502Z,29.57
2023-08-14T13:13:19.546Z,29.55
2023-08-14T13:14:19.568Z,29.53
2023-08-14T13:15:19.602Z,29.55
2023-08-14T13:16:19.667Z,29.60
2023-08-14T13:17:20.159Z,29.67
2023-08-14T13:18:19.709Z,29.73
2023-08-14T13:19:19.744Z,29.68
2023-08-14T13:20:19.776Z,29.70
2023-08-14T13:21:19.808Z,29.78
2023-08-14T13:22:19.840Z,29.78
2023-08-14T13:23:19.908Z,29.76
2023-08-14T13:24:19.907Z,29.78
2023-08-14T13:25:19.945Z,29.87
2023-08-14T13:26:26.754Z,29.82
2023-08-14T13:27:20.228Z,29.74
2023-08-14T13:28:20.086Z,29.71
2023-08-14T13:29:20.083Z,29.80
2023-08-14T13:30:20.830Z,29.78
2023-08-14T13:31:20.169Z,29.79
2023-08-14T13:32:20.798Z,29.85
2023-08-14T13:33:20.223Z,29.87
2023-08-14T13:34:20.257Z,29.89
2023-08-14T13:35:20.286Z,29.92
2023-08-14T13:36:20.330Z,29.89
2023-08-14T13:37:20.356Z,29.92
2023-08-14T13:38:20.386Z,29.86
2023-08-14T13:39:20.420Z,29.85
2023-08-14T13:40:20.455Z,29.79
2023-08-14T13:41:20.483Z,29.82
2023-08-14T13:42:20.722Z,29.82
2023-08-14T13:43:20.555Z,29.79
2023-08-14T13:44:20.589Z,29.68
2023-08-14T13:45:20.652Z,29.79
2023-08-14T13:46:20.751Z,29.74
2023-08-14T13:47:20.705Z,29.71
2023-08-14T13:48:20.759Z,29.79
2023-08-14T13:49:20.770Z,29.74
2023-08-14T13:50:31.902Z,29.73
2023-08-14T13:51:20.827Z,29.78
2023-08-14T13:52:20.872Z,29.78
2023-08-14T13:53:20.895Z,29.74
2023-08-14T13:54:20.927Z,29.67
2023-08-14T13:55:20.970Z,29.76
2023-08-14T13:56:21.002Z,29.79
2023-08-14T13:57:21.208Z,29.74
2023-08-14T13:58:21.071Z,29.74
2023-08-14T13:59:21.104Z,29.76
2023-08-14T14:00:22.940Z,29.74
2023-08-14T14:01:21.196Z,29.73
2023-08-14T14:02:21.202Z,29.76
2023-08-14T14:03:21.235Z,29.90
2023-08-14T14:04:22.352Z,29.87
2023-08-14T14:05:21.359Z,29.86
2023-08-14T14:06:21.358Z,29.94
2023-08-14T14:07:24.494Z,29.95
2023-08-14T14:08:21.409Z,30.05
2023-08-14T14:09:21.448Z,30.19
2023-08-14T14:10:21.487Z,30.11
2023-08-14T14:11:21.521Z,30.24
2023-08-14T14:12:21.562Z,30.37
2023-08-14T14:13:21.635Z,30.38
2023-08-14T14:14:21.617Z,30.45
2023-08-14T14:15:21.661Z,30.43
2023-08-14T14:16:21.719Z,30.49
2023-08-14T14:17:21.756Z,30.47
2023-08-14T14:18:21.756Z,30.46
2023-08-14T14:19:21.800Z,30.43